Time;durP1;ratioP1;P1;durP2;ratioP2;P2;SDS_P1;SDS_P2;PMS_P1;PMS_P2;Temp;Humidity;BMP_temperature;BMP_pressure;BME280_temperature;BME280_humidity;BME280_pressure;Samples;Min_cycle;Max_cycle;Signal;HPM_P1;HPM_P2
2022/07/10 00:00:41;;;;;;;;;7.00;7.00;24.20;42.70;;;;;;5100874;28;8760;-80
2022/07/10 00:03:07;;;;;;;;;9.67;9.67;24.10;43.20;;;;;;5101046;28;8779;-81
2022/07/10 00:05:36;;;;;;;;;10.00;10.00;24.10;43.00;;;;;;5082953;28;8775;-81
2022/07/10 00:08:02;;;;;;;;;7.67;7.67;24.20;42.60;;;;;;5100774;28;11437;-80
2022/07/10 00:10:28;;;;;;;;;7.67;7.67;24.10;42.90;;;;;;5100648;28;11388;-81
2022/07/10 00:12:54;;;;;;;;;8.67;8.67;24.10;43.10;;;;;;5101220;28;11414;-81
2022/07/10 00:15:20;;;;;;;;;11.00;9.00;24.00;43.10;;;;;;5100745;28;11416;-80
2022/07/10 00:17:46;;;;;;;;;9.00;8.33;24.10;42.90;;;;;;5100929;28;11446;-81
2022/07/10 00:20:14;;;;;;;;;7.33;7.33;24.20;42.80;;;;;;5100692;28;8879;-81
2022/07/10 00:22:41;;;;;;;;;10.00;9.00;24.00;43.20;;;;;;5100917;28;11398;-80
2022/07/10 00:25:10;;;;;;;;;10.00;10.00;23.80;43.60;;;;;;5100477;28;11462;-80
2022/07/10 00:27:36;;;;;;;;;10.00;10.00;23.80;43.50;;;;;;5100681;28;11386;-81
2022/07/10 00:30:02;;;;;;;;;9.00;7.67;23.90;43.20;;;;;;5100727;28;8760;-81
2022/07/10 00:32:28;;;;;;;;;8.00;8.00;23.90;43.40;;;;;;5100547;28;8790;-81
2022/07/10 00:34:54;;;;;;;;;9.00;9.00;23.90;43.30;;;;;;5100563;28;8788;-80
2022/07/10 00:37:22;;;;;;;;;8.00;8.00;23.90;43.10;;;;;;5098855;28;8768;-80
2022/07/10 00:39:49;;;;;;;;;8.00;8.00;23.80;43.50;;;;;;5097462;28;8886;-80
2022/07/10 00:42:16;;;;;;;;;8.67;8.33;23.70;43.80;;;;;;5097681;28;12022;-81
2022/07/10 00:44:42;;;;;;;;;8.00;8.00;23.60;43.80;;;;;;5095543;28;8787;-82
2022/07/10 00:47:10;;;;;;;;;9.67;9.67;23.70;43.60;;;;;;5097030;28;11385;-79
2022/07/10 00:49:38;;;;;;;;;9.00;9.00;23.60;43.90;;;;;;5097432;28;12099;-80
2022/07/10 00:52:06;;;;;;;;;8.00;8.00;23.30;44.60;;;;;;5097144;28;9203;-80
2022/07/10 00:54:34;;;;;;;;;7.67;7.67;23.40;44.40;;;;;;5079200;28;9471;-81
2022/07/10 00:57:03;;;;;;;;;11.00;11.00;23.30;44.70;;;;;;5097046;28;8838;-80
2022/07/10 00:59:29;;;;;;;;;7.33;7.33;23.40;44.60;;;;;;5062309;28;9424;-82
2022/07/10 01:01:55;;;;;;;;;7.67;7.67;23.40;44.50;;;;;;5096952;28;8778;-81
2022/07/10 01:04:21;;;;;;;;;7.33;7.33;23.40;44.50;;;;;;5096790;28;8788;-79
2022/07/10 01:06:47;;;;;;;;;8.00;8.00;23.50;44.30;;;;;;5096702;28;11372;-80
2022/07/10 01:09:13;;;;;;;;;10.00;9.00;23.40;44.40;;;;;;5096757;28;8779;-81
2022/07/10 01:11:39;;;;;;;;;9.33;8.33;23.30;44.80;;;;;;5096775;28;8740;-80
2022/07/10 01:14:05;;;;;;;;;7.00;7.00;23.30;44.70;;;;;;5096947;28;8752;-80
2022/07/10 01:16:32;;;;;;;;;9.33;9.33;23.30;44.60;;;;;;5096569;28;12041;-80
2022/07/10 01:18:58;;;;;;;;;8.33;8.33;23.10;45.20;;;;;;5096622;28;8823;-80
2022/07/10 01:21:33;;;;;;;;;10.00;8.33;22.90;45.70;;;;;;5096866;28;8791;-80
2022/07/10 01:23:59;;;;;;;;;7.00;7.00;22.80;45.80;;;;;;5096375;28;8796;-82
2022/07/10 01:26:25;;;;;;;;;8.33;8.33;22.90;45.70;;;;;;5096301;28;11404;-82
2022/07/10 01:28:54;;;;;;;;;8.33;8.33;22.90;45.50;;;;;;5096896;28;8768;-81
2022/07/10 01:31:24;;;;;;;;;8.33;8.33;23.00;45.50;;;;;;5096387;28;8772;-81
2022/07/10 01:33:50;;;;;;;;;11.00;11.00;23.00;45.40;;;;;;5096556;28;8875;-82
2022/07/10 01:36:16;;;;;;;;;8.00;8.00;22.90;45.50;;;;;;5096286;28;8829;-81
2022/07/10 01:38:42;;;;;;;;;9.00;9.00;22.90;45.70;;;;;;5096278;28;9444;-81
2022/07/10 01:41:09;;;;;;;;;9.00;9.00;22.80;46.00;;;;;;5096355;28;11527;-82
2022/07/10 01:43:42;;;;;;;;;9.00;9.00;22.90;45.80;;;;;;5096099;28;8872;-80
2022/07/10 01:46:10;;;;;;;;;8.00;8.00;22.80;45.90;;;;;;5096190;28;8888;-81
2022/07/10 01:48:37;;;;;;;;;10.00;8.67;22.80;46.00;;;;;;5095584;28;11523;-81
2022/07/10 01:51:03;;;;;;;;;9.00;9.00;22.90;45.80;;;;;;5095770;28;8767;-80
2022/07/10 01:53:29;;;;;;;;;9.00;8.00;22.90;45.70;;;;;;5096413;28;8763;-82
2022/07/10 01:55:55;;;;;;;;;8.00;8.00;22.90;45.50;;;;;;5095897;28;8847;-81
2022/07/10 01:58:21;;;;;;;;;8.67;8.67;22.90;45.80;;;;;;5095866;28;8752;-81
2022/07/10 02:00:47;;;;;;;;;9.00;9.00;22.90;45.70;;;;;;5095738;28;9428;-81
2022/07/10 02:05:58;;;;;;;;;10.00;10.00;22.80;46.10;;;;;;5095697;28;8727;-81
2022/07/10 02:08:23;;;;;;;;;8.00;8.00;22.80;45.80;;;;;;5095638;28;8775;-82
2022/07/10 02:10:49;;;;;;;;;11.00;9.33;22.90;45.70;;;;;;5095536;28;11567;-81
2022/07/10 02:13:17;;;;;;;;;9.33;9.00;23.00;45.50;;;;;;5095666;28;8736;-81
2022/07/10 02:15:43;;;;;;;;;8.33;8.33;23.00;45.50;;;;;;5095808;28;8760;-81
2022/07/10 02:18:09;;;;;;;;;9.00;8.67;22.90;45.70;;;;;;5095340;28;8795;-81
2022/07/10 02:20:36;;;;;;;;;10.00;10.00;22.90;45.70;;;;;;5095397;28;11358;-81
2022/07/10 02:23:02;;;;;;;;;9.00;8.33;23.00;45.50;;;;;;5095627;28;8736;-82
2022/07/10 02:25:28;;;;;;;;;9.00;9.00;23.10;45.20;;;;;;5095429;28;8764;-81
2022/07/10 02:27:54;;;;;;;;;10.33;9.00;23.00;45.20;;;;;;5095269;28;8792;-81
2022/07/10 02:30:20;;;;;;;;;8.00;8.00;22.90;45.40;;;;;;5095213;28;8795;-82
2022/07/10 02:32:46;;;;;;;;;9.33;9.33;22.90;45.40;;;;;;5095628;28;8764;-81
2022/07/10 02:35:11;;;;;;;;;10.67;10.67;23.00;45.30;;;;;;5095396;28;8786;-81
2022/07/10 02:37:37;;;;;;;;;10.00;10.00;23.00;45.10;;;;;;5095173;28;8772;-82
2022/07/10 02:40:03;;;;;;;;;10.33;10.33;23.00;45.10;;;;;;5095356;28;8867;-82
2022/07/10 02:42:29;;;;;;;;;9.00;9.00;22.90;45.30;;;;;;5094967;28;9439;-81
2022/07/10 02:44:55;;;;;;;;;10.00;8.33;22.90;45.40;;;;;;5094917;28;8768;-81
2022/07/10 02:47:20;;;;;;;;;8.67;8.67;22.90;45.20;;;;;;5095083;28;8760;-82
2022/07/10 02:49:46;;;;;;;;;9.00;8.00;22.90;45.10;;;;;;5094959;28;8764;-81
2022/07/10 02:52:12;;;;;;;;;12.33;10.00;22.90;45.30;;;;;;5095341;28;8788;-80
2022/07/10 02:54:38;;;;;;;;;7.67;7.67;22.80;45.40;;;;;;5095161;28;9406;-79
2022/07/10 02:57:04;;;;;;;;;8.00;8.00;22.90;45.30;;;;;;5094815;28;8784;-79
2022/07/10 02:59:30;;;;;;;;;12.00;9.00;22.70;45.60;;;;;;5094827;28;8752;-82
2022/07/10 03:01:56;;;;;;;;;9.00;9.00;22.60;45.80;;;;;;5094275;28;11463;-81
2022/07/10 03:04:22;;;;;;;;;11.67;10.00;22.60;45.90;;;;;;5094639;28;8811;-83
2022/07/10 03:06:47;;;;;;;;;8.33;8.33;22.60;46.00;;;;;;5094659;28;8764;-82
2022/07/10 03:09:13;;;;;;;;;9.00;9.00;22.60;45.80;;;;;;5094619;28;8871;-81
2022/07/10 03:11:39;;;;;;;;;8.00;8.00;22.50;46.00;;;;;;5094907;28;8764;-82
2022/07/10 03:14:05;;;;;;;;;9.00;8.33;22.50;46.30;;;;;;5094853;28;8879;-81
2022/07/10 03:16:32;;;;;;;;;10.00;10.00;22.30;46.70;;;;;;5094515;28;8775;-81
2022/07/10 03:18:57;;;;;;;;;6.00;6.00;22.40;46.40;;;;;;5094453;28;8815;-81
2022/07/10 03:21:23;;;;;;;;;8.00;6.00;22.30;46.70;;;;;;5094329;28;11464;-82
2022/07/10 03:23:50;;;;;;;;;8.00;8.00;22.20;46.70;;;;;;5094343;28;8807;-82
2022/07/10 03:26:15;;;;;;;;;6.33;6.33;22.20;46.80;;;;;;5076888;28;8806;-81
2022/07/10 03:28:41;;;;;;;;;7.00;7.00;22.10;47.00;;;;;;5094337;28;12030;-81
2022/07/10 03:31:07;;;;;;;;;10.67;10.67;22.10;48.00;;;;;;5094459;28;8748;-81
2022/07/10 03:33:33;;;;;;;;;12.00;9.67;22.10;47.40;;;;;;5094314;28;8776;-80
2022/07/10 03:36:01;;;;;;;;;8.00;8.00;22.10;47.20;;;;;;5076430;28;8779;-81
2022/07/10 03:38:27;;;;;;;;;9.00;9.00;22.20;47.00;;;;;;5094361;28;8948;-82
2022/07/10 03:40:53;;;;;;;;;8.67;8.00;22.20;47.00;;;;;;5094238;28;11385;-81
2022/07/10 03:43:19;;;;;;;;;8.00;8.00;22.30;46.60;;;;;;5094206;28;8764;-82
2022/07/10 03:45:45;;;;;;;;;7.00;7.00;22.20;46.60;;;;;;5094624;28;8760;-82
2022/07/10 03:48:11;;;;;;;;;7.67;7.67;22.20;46.70;;;;;;5094389;28;8784;-81
2022/07/10 03:50:37;;;;;;;;;7.00;7.00;22.20;46.60;;;;;;5094459;28;8764;-81
2022/07/10 03:53:03;;;;;;;;;7.33;7.33;22.30;46.40;;;;;;5094297;28;8803;-82
2022/07/10 03:55:29;;;;;;;;;6.00;6.00;22.40;46.20;;;;;;5094532;28;8771;-81
2022/07/10 03:57:56;;;;;;;;;9.00;9.00;22.30;46.50;;;;;;5094223;28;8773;-82
2022/07/10 04:00:26;;;;;;;;;10.00;10.00;22.40;46.40;;;;;;5076269;28;8840;-82
2022/07/10 04:02:57;;;;;;;;;10.00;10.00;22.40;46.30;;;;;;5094526;28;8802;-83
2022/07/10 04:05:23;;;;;;;;;9.33;9.33;22.40;46.60;;;;;;5094041;28;8807;-81
2022/07/10 04:07:49;;;;;;;;;7.33;7.33;22.20;46.80;;;;;;5094081;28;12093;-82
2022/07/10 04:10:15;;;;;;;;;7.67;7.67;22.00;47.80;;;;;;5094075;28;8763;-81
2022/07/10 04:12:42;;;;;;;;;7.00;7.00;21.90;47.70;;;;;;5095276;28;9456;-82
2022/07/10 04:15:08;;;;;;;;;7.00;7.00;22.00;47.80;;;;;;5098075;28;11408;-81
2022/07/10 04:17:34;;;;;;;;;8.33;7.00;21.90;48.00;;;;;;5098036;28;8931;-81
2022/07/10 04:20:00;;;;;;;;;8.00;8.00;21.70;48.90;;;;;;5097473;28;12147;-82
2022/07/10 04:22:27;;;;;;;;;6.00;6.00;21.80;48.60;;;;;;5097826;28;8845;-81
2022/07/10 04:24:53;;;;;;;;;8.00;8.00;21.90;48.50;;;;;;5097679;28;8792;-80
2022/07/10 04:27:19;;;;;;;;;8.00;8.00;21.90;48.40;;;;;;5097746;28;8751;-81
2022/07/10 04:29:45;;;;;;;;;9.33;9.33;21.90;48.60;;;;;;5097442;28;11431;-82
2022/07/10 04:32:11;;;;;;;;;10.33;10.00;21.60;49.50;;;;;;5097744;28;9429;-81
2022/07/10 04:34:37;;;;;;;;;9.00;9.00;21.80;49.20;;;;;;5097496;28;8770;-81
2022/07/10 04:37:03;;;;;;;;;9.67;8.67;21.90;49.00;;;;;;5097537;28;8774;-81
2022/07/10 04:39:29;;;;;;;;;8.67;7.67;21.90;49.10;;;;;;5097886;28;11383;-81
2022/07/10 04:41:55;;;;;;;;;7.00;7.00;21.80;49.60;;;;;;5097389;28;8752;-81
2022/07/10 04:44:21;;;;;;;;;7.00;7.00;21.70;49.70;;;;;;5097220;28;8803;-82
2022/07/10 04:46:47;;;;;;;;;9.00;9.00;21.70;49.80;;;;;;5097591;28;8752;-82
2022/07/10 04:49:13;;;;;;;;;8.33;8.00;22.00;49.10;;;;;;5097676;28;8906;-82
2022/07/10 04:51:39;;;;;;;;;6.67;6.67;22.10;48.70;;;;;;5097145;28;12086;-79
2022/07/10 04:54:05;;;;;;;;;8.33;7.67;22.10;48.90;;;;;;5097094;28;8768;-82
2022/07/10 04:56:31;;;;;;;;;9.00;9.00;22.00;49.10;;;;;;5097037;28;8768;-82
2022/07/10 04:58:57;;;;;;;;;7.33;7.33;21.90;49.40;;;;;;5097033;28;8787;-81
2022/07/10 05:01:23;;;;;;;;;9.33;9.33;22.10;49.20;;;;;;5096796;28;11408;-81
2022/07/10 05:03:49;;;;;;;;;10.00;10.00;22.10;49.00;;;;;;5097136;28;8868;-81
2022/07/10 05:06:15;;;;;;;;;9.67;9.67;22.20;48.90;;;;;;5096898;28;8783;-82
2022/07/10 05:08:41;;;;;;;;;11.33;10.67;22.10;49.20;;;;;;5096945;28;8752;-81
2022/07/10 05:11:06;;;;;;;;;10.00;10.00;22.10;49.50;;;;;;5097005;28;8795;-82
2022/07/10 05:13:32;;;;;;;;;8.67;8.67;22.00;49.90;;;;;;5096705;28;8870;-82
2022/07/10 05:15:58;;;;;;;;;12.00;12.00;21.90;49.90;;;;;;5096732;28;8768;-81
2022/07/10 05:18:24;;;;;;;;;7.00;7.00;21.90;50.00;;;;;;5096648;28;8814;-81
2022/07/10 05:20:49;;;;;;;;;9.00;9.00;22.00;50.20;;;;;;5096739;28;8764;-82
2022/07/10 05:23:15;;;;;;;;;8.00;8.00;21.80;51.00;;;;;;5096357;28;8771;-82
2022/07/10 05:25:41;;;;;;;;;11.00;8.00;21.90;50.80;;;;;;5096606;28;8966;-83
2022/07/10 05:28:07;;;;;;;;;8.00;8.00;21.90;50.80;;;;;;5096552;28;8748;-81
2022/07/10 05:30:33;;;;;;;;;8.33;8.33;21.90;51.00;;;;;;5096484;28;8756;-82
2022/07/10 05:33:00;;;;;;;;;7.67;7.67;22.00;50.90;;;;;;5096349;28;11376;-82
2022/07/10 05:35:26;;;;;;;;;9.00;9.00;22.00;51.20;;;;;;5096280;28;11966;-82
2022/07/10 05:37:53;;;;;;;;;7.00;7.00;22.00;51.60;;;;;;5096510;28;12074;-82
2022/07/10 05:40:19;;;;;;;;;8.00;8.00;22.00;51.60;;;;;;5096320;28;11478;-82
2022/07/10 05:42:44;;;;;;;;;10.67;8.67;22.10;51.80;;;;;;5096598;28;12114;-82
2022/07/10 05:45:11;;;;;;;;;8.00;8.00;22.10;51.80;;;;;;5078119;28;8791;-83
2022/07/10 05:47:37;;;;;;;;;6.00;6.00;22.20;51.80;;;;;;5096126;28;8868;-82
2022/07/10 05:50:04;;;;;;;;;7.33;7.00;22.20;52.00;;;;;;5095945;28;11418;-82
2022/07/10 05:52:29;;;;;;;;;6.33;6.33;22.20;51.60;;;;;;5078016;28;11540;-82
2022/07/10 05:54:56;;;;;;;;;9.33;9.00;22.10;52.30;;;;;;5095867;28;11516;-81
2022/07/10 05:57:22;;;;;;;;;10.00;10.00;22.10;52.00;;;;;;5096082;28;8751;-82
2022/07/10 05:59:48;;;;;;;;;7.00;7.00;22.10;52.30;;;;;;5095603;28;11457;-82
2022/07/10 06:02:15;;;;;;;;;9.00;8.33;22.10;52.30;;;;;;5096132;28;8772;-82
2022/07/10 06:04:41;;;;;;;;;9.33;7.67;22.10;52.90;;;;;;5095654;28;11489;-82
2022/07/10 06:07:06;;;;;;;;;8.33;7.00;22.00;52.90;;;;;;5095696;28;8875;-82
2022/07/10 06:09:32;;;;;;;;;6.00;6.00;21.90;53.20;;;;;;5077694;28;11535;-82
2022/07/10 06:11:58;;;;;;;;;6.00;6.00;22.10;52.80;;;;;;5095870;28;8748;-83
2022/07/10 06:14:24;;;;;;;;;5.00;5.00;22.10;52.90;;;;;;5095475;28;8826;-82
2022/07/10 06:16:50;;;;;;;;;6.67;6.67;22.00;53.10;;;;;;5095726;28;8756;-81
2022/07/10 06:19:17;;;;;;;;;7.00;7.00;22.00;52.80;;;;;;5095423;28;8811;-82
2022/07/10 06:21:43;;;;;;;;;4.33;4.33;22.10;52.80;;;;;;5095476;28;8760;-83
2022/07/10 06:24:09;;;;;;;;;6.00;6.00;22.20;52.80;;;;;;5095289;28;12169;-82
2022/07/10 06:26:34;;;;;;;;;9.00;7.67;22.20;53.20;;;;;;5095589;28;8780;-81
2022/07/10 06:29:00;;;;;;;;;7.00;6.33;22.10;53.20;;;;;;5095248;28;9113;-82
2022/07/10 06:31:26;;;;;;;;;7.00;7.00;22.30;52.90;;;;;;5095203;28;8764;-82
2022/07/10 06:33:52;;;;;;;;;18.33;17.00;22.40;52.60;;;;;;5095076;28;8862;-82
2022/07/10 06:36:17;;;;;;;;;19.33;18.33;22.00;53.70;;;;;;5094651;28;8782;-78
2022/07/10 06:38:43;;;;;;;;;21.00;21.00;22.10;53.30;;;;;;5095320;28;8764;-82
2022/07/10 06:41:09;;;;;;;;;37.67;35.00;22.20;53.60;;;;;;5095234;28;8764;-81
2022/07/10 06:43:35;;;;;;;;;17.67;17.67;22.30;53.50;;;;;;5094890;28;8791;-81
2022/07/10 06:46:01;;;;;;;;;16.67;16.00;22.30;53.10;;;;;;5095016;28;8763;-81
2022/07/10 06:48:27;;;;;;;;;11.67;11.00;22.50;52.80;;;;;;5095260;28;8804;-81
2022/07/10 06:50:53;;;;;;;;;9.67;9.67;22.70;52.50;;;;;;5095126;28;8767;-83
2022/07/10 06:53:26;;;;;;;;;6.00;6.00;22.90;51.40;;;;;;5095004;28;11438;-82
2022/07/10 06:55:52;;;;;;;;;7.67;7.67;22.80;51.80;;;;;;5094840;28;11382;-81
2022/07/10 06:58:17;;;;;;;;;8.67;8.67;22.50;52.30;;;;;;5094969;28;11400;-82
2022/07/10 07:00:43;;;;;;;;;6.00;6.00;22.40;53.00;;;;;;5094795;28;9486;-82
2022/07/10 07:03:09;;;;;;;;;8.00;6.00;22.50;52.50;;;;;;5094703;28;8814;-82
2022/07/10 07:05:35;;;;;;;;;6.00;5.33;22.60;52.20;;;;;;5076780;28;8910;-82
2022/07/10 07:08:01;;;;;;;;;7.00;7.00;22.30;52.60;;;;;;5094603;28;8786;-81
2022/07/10 07:10:26;;;;;;;;;6.67;6.67;22.20;52.90;;;;;;5094563;28;8787;-81
2022/07/10 07:12:52;;;;;;;;;3.00;3.00;22.40;52.50;;;;;;5094423;28;8772;-81
2022/07/10 07:15:20;;;;;;;;;8.33;8.33;22.70;51.40;;;;;;5076846;28;8772;-82
2022/07/10 07:23:15;;;;;;;;;7.33;7.33;23.40;50.30;;;;;;5094498;28;11376;-83
2022/07/10 07:25:46;;;;;;;;;6.00;6.00;23.50;49.80;;;;;;5094472;28;11453;-82
2022/07/10 07:28:15;;;;;;;;;6.00;6.00;23.50;50.00;;;;;;5094491;28;8800;-83
2022/07/10 07:30:41;;;;;;;;;6.33;6.33;23.60;49.50;;;;;;5094711;28;11963;-82
2022/07/10 07:33:07;;;;;;;;;6.33;6.33;23.60;48.70;;;;;;5094370;28;11378;-83
2022/07/10 07:35:33;;;;;;;;;8.00;8.00;23.50;48.60;;;;;;5094380;28;11379;-82
2022/07/10 07:38:00;;;;;;;;;7.00;7.00;23.00;50.20;;;;;;5076538;28;9425;-82
2022/07/10 07:40:26;;;;;;;;;8.00;7.33;22.90;50.50;;;;;;5094391;28;8762;-83
2022/07/10 07:42:54;;;;;;;;;9.67;8.00;23.00;50.10;;;;;;5094419;28;11508;-82
2022/07/10 07:45:21;;;;;;;;;7.00;7.00;23.20;50.10;;;;;;5094013;28;8795;-82
2022/07/10 07:47:49;;;;;;;;;6.67;6.67;23.30;49.90;;;;;;5096947;28;11514;-81
2022/07/10 07:50:19;;;;;;;;;9.33;9.33;23.50;49.40;;;;;;5098097;28;11427;-82
2022/07/10 07:52:46;;;;;;;;;6.00;6.00;23.60;48.70;;;;;;5098191;28;11429;-83
2022/07/10 07:55:14;;;;;;;;;5.33;5.33;23.50;49.00;;;;;;5080156;28;11485;-82
2022/07/10 07:57:41;;;;;;;;;8.00;8.00;23.30;48.70;;;;;;5098140;28;11390;-82
2022/07/10 08:00:08;;;;;;;;;5.00;5.00;23.20;48.90;;;;;;5098331;28;11395;-82
2022/07/10 08:02:35;;;;;;;;;4.00;4.00;23.50;48.50;;;;;;5098028;28;11418;-82
2022/07/10 08:05:01;;;;;;;;;6.00;6.00;23.50;47.80;;;;;;5080006;28;11434;-81
2022/07/10 08:07:38;;;;;;;;;6.67;6.67;23.70;47.80;;;;;;5097854;28;11473;-81
2022/07/10 08:10:07;;;;;;;;;8.75;7.50;23.90;47.50;;;;;;5097874;28;11400;-81
2022/07/10 08:12:32;;;;;;;;;7.00;7.00;23.90;47.60;;;;;;5097829;28;11481;-81
2022/07/10 08:14:58;;;;;;;;;6.00;6.00;23.70;47.70;;;;;;5098113;28;11490;-81
2022/07/10 08:17:25;;;;;;;;;6.00;6.00;23.50;48.10;;;;;;5097756;28;8776;-81
2022/07/10 08:19:51;;;;;;;;;6.75;6.25;23.50;47.50;;;;;;5097764;28;8811;-80
2022/07/10 08:22:17;;;;;;;;;6.33;6.33;23.70;47.50;;;;;;5097495;28;11474;-81
2022/07/10 08:24:43;;;;;;;;;8.00;8.00;23.90;47.00;;;;;;5097639;28;8791;-81
2022/07/10 08:27:08;;;;;;;;;7.33;7.33;24.10;46.40;;;;;;5097641;28;8756;-81
2022/07/10 08:29:34;;;;;;;;;5.00;5.00;24.30;46.20;;;;;;5097821;28;8853;-81
2022/07/10 08:32:00;;;;;;;;;6.00;6.00;24.50;45.30;;;;;;5097473;28;8853;-81
2022/07/10 08:34:27;;;;;;;;;6.00;6.00;24.60;44.60;;;;;;5079536;28;8784;-81
2022/07/10 08:36:53;;;;;;;;;6.25;6.25;24.70;44.50;;;;;;5097517;28;8768;-81
2022/07/10 08:39:22;;;;;;;;;4.00;4.00;24.50;44.50;;;;;;5097188;28;11386;-81
2022/07/10 08:41:51;;;;;;;;;7.00;7.00;24.50;44.40;;;;;;5097328;28;11402;-81
2022/07/10 08:44:17;;;;;;;;;6.00;6.00;24.60;44.30;;;;;;5097181;28;11401;-82
2022/07/10 08:46:44;;;;;;;;;9.00;9.00;24.70;44.50;;;;;;5097328;28;11374;-81
2022/07/10 08:49:11;;;;;;;;;4.50;4.50;24.90;44.10;;;;;;5097594;28;11409;-81
2022/07/10 08:51:52;;;;;;;;;8.50;8.00;24.80;43.80;;;;;;5097365;28;12093;-81
2022/07/10 08:54:18;;;;;;;;;5.50;5.50;24.80;43.80;;;;;;5097022;28;11385;-81
2022/07/10 08:56:44;;;;;;;;;7.00;6.75;24.80;44.00;;;;;;5097028;28;11453;-82
2022/07/10 08:59:14;;;;;;;;;2.75;2.75;24.90;43.60;;;;;;5096575;28;11372;-81
2022/07/10 09:01:40;;;;;;;;;5.25;5.25;24.90;43.60;;;;;;5079111;28;8776;-82
2022/07/10 09:04:05;;;;;;;;;6.75;6.75;25.00;43.60;;;;;;5096722;28;11418;-82
2022/07/10 09:06:31;;;;;;;;;5.25;4.50;25.00;43.30;;;;;;5097065;28;11400;-82
2022/07/10 09:09:04;;;;;;;;;5.75;5.75;25.00;42.50;;;;;;5096842;28;8796;-81
2022/07/10 09:11:30;;;;;;;;;7.00;5.00;24.90;42.30;;;;;;5096812;28;8772;-80
2022/07/10 09:13:59;;;;;;;;;6.00;6.00;25.00;42.50;;;;;;5096613;28;12087;-80
2022/07/10 09:16:29;;;;;;;;;4.25;3.50;24.90;42.70;;;;;;5096920;28;11451;-80
2022/07/10 09:18:56;;;;;;;;;4.00;4.00;25.00;43.10;;;;;;5096616;28;12062;-80
2022/07/10 09:21:22;;;;;;;;;5.00;5.00;24.80;42.60;;;;;;5096721;28;11398;-83
2022/07/10 09:23:49;;;;;;;;;4.25;4.25;24.40;42.80;;;;;;5096530;28;11428;-81
2022/07/10 09:26:15;;;;;;;;;3.50;3.50;24.20;43.40;;;;;;5096575;28;11401;-81
2022/07/10 09:28:41;;;;;;;;;5.00;5.00;24.50;43.10;;;;;;5096841;28;11385;-81
2022/07/10 09:31:07;;;;;;;;;6.75;5.75;24.80;42.10;;;;;;5096391;28;11384;-81
2022/07/10 09:33:34;;;;;;;;;4.00;4.00;24.80;42.50;;;;;;5096758;28;8760;-80
2022/07/10 09:36:16;;;;;;;;;5.00;5.00;25.00;42.10;;;;;;5096656;28;8764;-80
2022/07/10 09:38:48;;;;;;;;;4.25;4.25;25.20;42.20;;;;;;5096356;28;11572;-81
2022/07/10 09:41:29;;;;;;;;;4.00;4.00;25.40;41.40;;;;;;5096353;28;11401;-81
2022/07/10 09:44:03;;;;;;;;;3.00;3.00;25.40;41.30;;;;;;5096059;28;11466;-80
2022/07/10 09:46:36;;;;;;;;;4.00;4.00;25.10;40.30;;;;;;5096174;28;11377;-81
2022/07/10 09:49:09;;;;;;;;;3.00;3.00;25.00;41.00;;;;;;5096012;28;12133;-82
2022/07/10 09:51:42;;;;;;;;;4.50;4.50;25.00;41.30;;;;;;5096239;28;11405;-81
2022/07/10 09:54:09;;;;;;;;;6.00;5.00;25.00;41.70;;;;;;5095882;28;11401;-81
2022/07/10 09:56:52;;;;;;;;;4.75;4.75;25.30;41.60;;;;;;5096078;28;11421;-81
2022/07/10 09:59:19;;;;;;;;;4.00;4.00;25.50;41.50;;;;;;5095776;28;11499;-81
2022/07/10 10:01:49;;;;;;;;;5.00;5.00;25.40;41.20;;;;;;5077727;28;11424;-81
2022/07/10 10:04:18;;;;;;;;;4.00;3.25;25.40;41.00;;;;;;5095649;28;11460;-81
2022/07/10 10:06:50;;;;;;;;;3.75;3.75;25.30;40.50;;;;;;5095605;28;11430;-81
2022/07/10 10:09:24;;;;;;;;;4.75;4.75;25.40;40.70;;;;;;5095720;28;12035;-80
2022/07/10 10:11:56;;;;;;;;;4.00;4.00;25.60;40.60;;;;;;5094899;28;12096;-81
2022/07/10 10:14:23;;;;;;;;;3.75;3.00;25.70;40.00;;;;;;5095455;28;11460;-80
2022/07/10 10:16:52;;;;;;;;;2.00;2.00;25.90;39.10;;;;;;5095829;28;11986;-81
2022/07/10 10:22:07;;;;;;;;;3.75;3.75;26.00;37.90;;;;;;5095533;28;11381;-81
2022/07/10 10:24:33;;;;;;;;;5.00;5.00;25.80;39.10;;;;;;5095457;28;11519;-81
2022/07/10 10:27:01;;;;;;;;;3.00;3.00;25.70;40.50;;;;;;5095268;28;11393;-81
2022/07/10 10:29:28;;;;;;;;;3.75;2.50;25.60;40.10;;;;;;5095285;28;11406;-81
2022/07/10 10:31:54;;;;;;;;;4.25;4.25;25.90;39.40;;;;;;5095519;28;11382;-81
2022/07/10 10:34:42;;;;;;;;;7.75;7.75;26.00;38.10;;;;;;5095504;28;11562;-82
2022/07/10 10:37:34;;;;;;;;;6.25;5.25;26.20;36.90;;;;;;5095627;28;11494;-81
2022/07/10 10:40:00;;;;;;;;;4.00;4.00;26.30;36.30;;;;;;5095097;28;11420;-82
2022/07/10 10:42:43;;;;;;;;;6.25;5.25;26.40;36.00;;;;;;5095545;28;11377;-81
2022/07/10 10:45:37;;;;;;;;;4.50;4.50;26.50;36.70;;;;;;5077119;28;8831;-82
2022/07/10 10:48:09;;;;;;;;;4.00;4.00;26.70;37.20;;;;;;5095074;28;11437;-82
2022/07/10 10:50:48;;;;;;;;;0.50;0.25;26.60;37.20;;;;;;5094999;28;11509;-82
2022/07/10 10:53:15;;;;;;;;;4.00;4.00;26.90;36.90;;;;;;5095074;28;11394;-82
2022/07/10 10:56:02;;;;;;;;;0.75;0.75;27.00;36.00;;;;;;5094976;28;11388;-82
2022/07/10 10:58:44;;;;;;;;;4.00;4.00;27.10;34.50;;;;;;5094614;28;11381;-82
2022/07/10 11:01:26;;;;;;;;;4.00;4.00;26.90;36.30;;;;;;5095025;28;12147;-81
2022/07/10 11:04:04;;;;;;;;;3.75;3.75;27.30;35.70;;;;;;5094837;28;12127;-82
2022/07/10 11:06:50;;;;;;;;;5.00;5.00;27.40;34.10;;;;;;5094818;28;11399;-81
2022/07/10 11:09:30;;;;;;;;;4.00;4.00;27.40;33.40;;;;;;5095318;28;11386;-82
2022/07/10 11:12:10;;;;;;;;;4.00;4.00;27.10;33.90;;;;;;5094802;28;11485;-82
2022/07/10 11:14:42;;;;;;;;;4.00;3.50;27.30;33.90;;;;;;5094663;28;11461;-81
2022/07/10 11:17:09;;;;;;;;;5.00;5.00;27.30;33.80;;;;;;5095055;28;11392;-81
2022/07/10 11:19:35;;;;;;;;;6.00;4.25;27.60;33.50;;;;;;5094392;28;12027;-82
2022/07/10 11:22:10;;;;;;;;;5.50;5.50;27.40;33.20;;;;;;5094306;28;11528;-82
2022/07/10 11:25:14;;;;;;;;;4.00;4.00;27.60;33.80;;;;;;5094308;28;11496;-82
2022/07/10 11:28:08;;;;;;;;;6.00;5.00;27.70;33.50;;;;;;5094442;28;11527;-82
2022/07/10 11:30:54;;;;;;;;;4.00;4.00;27.20;34.10;;;;;;5094393;28;11459;-82
2022/07/10 11:33:21;;;;;;;;;4.75;4.75;27.10;34.40;;;;;;5094853;28;11371;-81
2022/07/10 11:35:52;;;;;;;;;4.75;4.75;27.60;33.90;;;;;;5094145;28;11416;-82
2022/07/10 11:38:22;;;;;;;;;5.00;5.00;28.10;33.70;;;;;;5094323;28;11424;-82
2022/07/10 11:40:48;;;;;;;;;6.00;6.00;28.50;32.80;;;;;;5094472;28;11478;-81
2022/07/10 11:43:16;;;;;;;;;4.75;4.75;28.90;32.70;;;;;;5094280;28;11472;-81
2022/07/10 11:45:43;;;;;;;;;7.75;7.75;29.20;31.40;;;;;;5094120;28;11498;-82
2022/07/10 11:48:21;;;;;;;;;6.00;6.00;29.90;31.10;;;;;;5094352;28;11448;-82
2022/07/10 11:50:47;;;;;;;;;6.00;6.00;29.60;30.90;;;;;;5094168;28;11417;-82
2022/07/10 11:53:13;;;;;;;;;5.00;5.00;29.50;31.30;;;;;;5094130;28;11477;-82
2022/07/10 11:55:42;;;;;;;;;4.50;4.50;28.80;32.20;;;;;;5094106;28;11406;-82
2022/07/10 11:58:18;;;;;;;;;6.00;6.00;29.10;32.20;;;;;;5094084;28;11396;-82
2022/07/10 12:00:57;;;;;;;;;4.00;4.00;29.90;30.50;;;;;;5094431;28;11459;-82
2022/07/10 12:03:23;;;;;;;;;3.00;3.00;31.00;29.40;;;;;;5094255;28;11461;-82
2022/07/10 12:05:50;;;;;;;;;4.50;4.50;32.30;28.10;;;;;;5094000;28;11522;-84
2022/07/10 12:08:16;;;;;;;;;4.00;4.00;32.60;27.40;;;;;;5094217;28;8854;-82
2022/07/10 12:10:42;;;;;;;;;3.00;3.00;32.10;27.50;;;;;;5094027;28;11472;-82
2022/07/10 12:13:13;;;;;;;;;5.00;5.00;31.20;28.90;;;;;;5094193;28;11426;-82
2022/07/10 12:15:45;;;;;;;;;5.50;4.25;31.70;28.60;;;;;;5093933;28;11578;-82
2022/07/10 12:18:21;;;;;;;;;2.75;2.75;32.40;27.80;;;;;;5094017;28;11433;-82
2022/07/10 12:20:49;;;;;;;;;3.50;3.50;32.50;27.60;;;;;;5073632;28;11443;-84
2022/07/10 12:23:16;;;;;;;;;5.25;4.00;32.90;26.50;;;;;;5073723;28;11448;-82
2022/07/10 12:25:49;;;;;;;;;2.00;2.00;33.50;26.00;;;;;;5073628;28;11583;-82
2022/07/10 12:28:15;;;;;;;;;3.00;3.00;33.50;25.70;;;;;;5073744;28;11428;-82
2022/07/10 12:30:51;;;;;;;;;1.25;1.25;33.60;25.60;;;;;;5073825;28;11462;-81
2022/07/10 12:33:22;;;;;;;;;3.00;3.00;33.80;25.70;;;;;;5074181;28;11417;-82
2022/07/10 12:35:58;;;;;;;;;4.75;4.75;34.60;25.70;;;;;;5077226;28;11418;-82
2022/07/10 12:38:31;;;;;;;;;4.00;4.00;35.10;24.80;;;;;;5077095;28;11558;-82
2022/07/10 12:41:08;;;;;;;;;2.00;2.00;35.80;24.50;;;;;;5077151;28;11428;-83
2022/07/10 12:43:34;;;;;;;;;1.75;1.75;36.80;23.30;;;;;;5075940;28;12159;-82
2022/07/10 12:46:16;;;;;;;;;2.00;2.00;37.30;23.60;;;;;;5075321;28;11517;-83
2022/07/10 12:49:05;;;;;;;;;2.75;2.75;38.50;22.20;;;;;;5077137;28;11456;-83
2022/07/10 12:51:33;;;;;;;;;1.50;1.50;39.50;21.80;;;;;;5076954;28;11439;-82
2022/07/10 12:54:00;;;;;;;;;2.50;2.50;40.40;21.20;;;;;;5077120;28;12044;-82
2022/07/10 12:56:27;;;;;;;;;2.50;2.50;40.90;20.50;;;;;;5076717;28;11522;-83
2022/07/10 12:58:53;;;;;;;;;2.50;2.50;40.40;20.50;;;;;;5077055;28;12112;-83
2022/07/10 13:01:19;;;;;;;;;2.00;2.00;39.90;20.70;;;;;;5076742;28;11473;-83
2022/07/10 13:03:45;;;;;;;;;3.25;3.25;39.80;20.40;;;;;;5076686;28;8757;-83
2022/07/10 13:06:28;;;;;;;;;1.00;1.00;39.20;21.20;;;;;;5076831;28;8740;-83